Time;durP1;ratioP1;P1;durP2;ratioP2;P2;SDS_P1;SDS_P2;PMS_P1;PMS_P2;Temp;Humidity;BMP_temperature;BMP_pressure;BME280_temperature;BME280_humidity;BME280_pressure;Samples;Min_cycle;Max_cycle;Signal;HPM_P1;HPM_P2
2022/06/08 00:02:14;;;;;;;5.17;2.13;;;15.00;95.20;;;;;;5067341;28;20209;-66
2022/06/08 00:04:39;;;;;;;2.70;2.00;;;15.00;95.10;;;;;;5039420;28;20243;-67
2022/06/08 00:07:05;;;;;;;5.27;2.13;;;15.00;95.20;;;;;;5071134;28;20191;-67
2022/06/08 00:09:31;;;;;;;3.90;2.27;;;14.90;95.00;;;;;;5037205;28;20187;-67
2022/06/08 00:11:57;;;;;;;1.90;1.80;;;14.90;95.20;;;;;;5042577;28;20190;-66
2022/06/08 00:14:23;;;;;;;2.93;1.67;;;15.00;95.10;;;;;;5046542;28;20189;-67
2022/06/08 00:16:48;;;;;;;2.77;2.23;;;14.90;94.50;;;;;;5062187;28;20183;-67
2022/06/08 00:19:14;;;;;;;2.23;2.03;;;15.00;94.90;;;;;;5051665;28;20183;-67
2022/06/08 00:21:40;;;;;;;4.53;2.33;;;15.00;95.00;;;;;;5056261;28;20189;-67
2022/06/08 00:24:06;;;;;;;7.70;2.90;;;14.90;95.00;;;;;;5064751;28;20181;-67
2022/06/08 00:26:32;;;;;;;2.60;2.40;;;14.90;95.10;;;;;;5072269;28;20192;-67
2022/06/08 00:28:57;;;;;;;2.20;2.00;;;14.90;95.10;;;;;;5055855;28;20618;-66
2022/06/08 00:31:23;;;;;;;7.07;1.97;;;14.90;95.20;;;;;;5072658;28;20204;-66
2022/06/08 00:33:49;;;;;;;2.03;1.80;;;14.90;94.80;;;;;;5049432;28;20197;-66
2022/06/08 00:36:15;;;;;;;2.97;1.87;;;14.90;94.90;;;;;;5045537;28;20274;-66
2022/06/08 00:38:40;;;;;;;2.50;2.10;;;14.90;94.90;;;;;;5067490;28;20178;-66
2022/06/08 00:41:12;;;;;;;3.67;2.20;;;14.80;95.00;;;;;;5053296;28;20209;-66
2022/06/08 00:43:38;;;;;;;5.10;2.03;;;14.80;94.80;;;;;;5063056;28;20183;-66
2022/06/08 00:46:05;;;;;;;3.10;2.43;;;14.80;94.60;;;;;;5069471;28;20264;-66
2022/06/08 00:48:34;;;;;;;4.23;2.20;;;14.80;94.90;;;;;;5072889;28;20229;-67
2022/06/08 00:51:00;;;;;;;3.40;1.93;;;14.80;94.90;;;;;;5052757;28;20185;-66
2022/06/08 00:53:53;;;;;;;2.30;1.70;;;14.80;93.80;;;;;;5068672;28;20185;-68
2022/06/08 00:56:25;;;;;;;4.13;1.97;;;14.70;93.80;;;;;;5056518;28;20198;-68
2022/06/08 00:58:51;;;;;;;4.40;2.47;;;14.70;94.40;;;;;;5096250;28;20207;-69
2022/06/08 01:01:17;;;;;;;3.10;1.90;;;14.60;94.30;;;;;;5052300;28;20269;-66
2022/06/08 01:03:43;;;;;;;3.07;2.40;;;14.70;94.60;;;;;;5052879;28;20265;-66
2022/06/08 01:06:21;;;;;;;4.23;2.37;;;14.70;94.80;;;;;;5066968;28;20217;-67
2022/06/08 01:08:52;;;;;;;4.10;2.80;;;14.70;94.80;;;;;;5058942;28;20189;-67
2022/06/08 01:11:43;;;;;;;2.93;2.13;;;14.80;95.00;;;;;;5084383;28;20186;-67
2022/06/08 01:14:11;;;;;;;2.27;2.07;;;14.70;94.70;;;;;;5091791;28;20186;-67
2022/06/08 01:16:41;;;;;;;2.33;2.13;;;14.70;94.30;;;;;;5086802;28;20182;-67
2022/06/08 01:19:10;;;;;;;3.57;2.33;;;14.80;94.60;;;;;;5063461;28;20181;-67
2022/06/08 01:21:36;;;;;;;3.23;2.33;;;14.60;94.50;;;;;;5060607;28;20280;-68
2022/06/08 01:24:06;;;;;;;2.40;2.17;;;14.60;94.80;;;;;;5066269;28;20242;-68
2022/06/08 01:26:56;;;;;;;4.77;2.47;;;14.70;94.60;;;;;;5075311;28;20237;-67
2022/06/08 01:29:54;;;;;;;2.13;2.03;;;14.70;94.60;;;;;;5066462;28;20174;-68
2022/06/08 01:32:41;;;;;;;2.40;2.20;;;14.70;94.50;;;;;;5063672;28;20196;-68
2022/06/08 01:35:07;;;;;;;1.97;1.77;;;14.70;94.40;;;;;;5071250;28;20181;-68
2022/06/08 01:38:15;;;;;;;2.80;2.00;;;14.70;94.00;;;;;;5059444;28;20250;-68
2022/06/08 01:41:00;;;;;;;5.47;2.30;;;14.70;93.90;;;;;;5056776;28;20305;-68
2022/06/08 01:43:26;;;;;;;2.40;1.63;;;14.70;94.10;;;;;;5058263;28;20222;-68
2022/06/08 01:45:55;;;;;;;2.10;1.90;;;14.70;94.20;;;;;;5066031;28;20212;-68
2022/06/08 01:48:46;;;;;;;2.20;2.00;;;14.70;93.70;;;;;;5072654;28;20313;-68
2022/06/08 01:51:30;;;;;;;2.90;1.93;;;14.70;93.70;;;;;;5063379;28;20186;-67
2022/06/08 01:54:14;;;;;;;2.10;1.87;;;14.70;93.60;;;;;;5059020;28;20208;-67
2022/06/08 01:57:03;;;;;;;2.20;2.00;;;14.70;93.70;;;;;;5064138;28;20181;-67
2022/06/08 01:59:49;;;;;;;3.90;2.23;;;14.70;93.40;;;;;;5068012;28;20198;-67
2022/06/08 02:02:23;;;;;;;5.57;2.60;;;14.80;93.80;;;;;;5069189;28;20178;-67
2022/06/08 02:04:56;;;;;;;2.57;2.33;;;14.70;94.00;;;;;;5057881;28;20178;-67
2022/06/08 02:07:37;;;;;;;4.07;2.40;;;14.70;94.00;;;;;;5065434;28;20182;-67
2022/06/08 02:10:24;;;;;;;2.87;2.47;;;14.70;93.70;;;;;;5062518;28;20223;-67
2022/06/08 02:13:08;;;;;;;3.33;2.63;;;14.70;93.60;;;;;;5104416;28;20177;-67
2022/06/08 02:15:38;;;;;;;3.10;2.27;;;14.80;93.40;;;;;;5075172;28;20200;-67
2022/06/08 02:18:11;;;;;;;2.63;2.33;;;14.70;91.90;;;;;;5074671;28;20196;-67
2022/06/08 02:20:46;;;;;;;4.50;2.57;;;14.70;92.40;;;;;;5071441;28;20204;-69
2022/06/08 02:23:41;;;;;;;3.10;2.47;;;14.70;92.40;;;;;;5069510;28;20291;-69
2022/06/08 02:26:13;;;;;;;1.83;1.70;;;14.70;92.60;;;;;;5046452;28;20195;-68
2022/06/08 02:28:47;;;;;;;3.20;2.03;;;14.70;90.20;;;;;;5070877;28;20192;-68
2022/06/08 02:31:24;;;;;;;2.63;2.10;;;14.70;90.30;;;;;;5067876;28;20185;-68
2022/06/08 02:37:19;;;;;;;3.33;1.87;;;14.70;91.20;;;;;;5063655;28;20196;-68
2022/06/08 02:40:14;;;;;;;3.90;2.60;;;14.70;91.10;;;;;;5067450;28;20203;-68
2022/06/08 02:42:44;;;;;;;3.13;2.00;;;14.70;92.10;;;;;;5068470;28;20197;-67
2022/06/08 02:45:22;;;;;;;4.40;2.40;;;14.70;91.50;;;;;;5063897;28;20182;-67
2022/06/08 02:47:51;;;;;;;2.80;2.60;;;14.70;91.90;;;;;;5064726;28;20238;-67
2022/06/08 02:50:23;;;;;;;2.40;2.20;;;14.70;92.50;;;;;;5064708;28;20236;-66
2022/06/08 02:52:51;;;;;;;3.80;2.70;;;14.70;92.70;;;;;;5061600;28;20182;-67
2022/06/08 02:55:34;;;;;;;5.03;2.90;;;14.70;93.30;;;;;;5077947;28;20273;-67
2022/06/08 02:58:12;;;;;;;7.70;2.90;;;14.70;93.70;;;;;;5062232;28;20182;-67
2022/06/08 03:01:00;;;;;;;3.83;2.97;;;14.70;93.90;;;;;;5064021;28;20209;-66
2022/06/08 03:03:35;;;;;;;4.13;2.87;;;14.70;94.10;;;;;;5067961;28;20184;-66
2022/06/08 03:06:09;;;;;;;5.30;2.73;;;14.70;94.30;;;;;;5064072;28;20178;-69
2022/06/08 03:08:44;;;;;;;4.07;3.30;;;14.70;94.30;;;;;;5064061;28;20186;-68
2022/06/08 03:11:11;;;;;;;6.40;2.83;;;14.70;94.50;;;;;;5063680;28;20201;-69
2022/06/08 03:13:52;;;;;;;3.70;3.30;;;14.70;94.50;;;;;;5057172;28;20179;-69
2022/06/08 03:16:52;;;;;;;4.27;3.43;;;14.70;94.70;;;;;;5056438;28;20221;-69
2022/06/08 03:19:18;;;;;;;5.27;2.90;;;14.70;94.70;;;;;;5054449;28;20190;-69
2022/06/08 03:21:45;;;;;;;3.97;2.53;;;14.60;94.70;;;;;;5060771;28;20182;-69
2022/06/08 03:24:11;;;;;;;2.80;2.60;;;14.70;94.80;;;;;;5059720;28;20178;-70
2022/06/08 03:26:42;;;;;;;4.80;3.10;;;14.70;94.70;;;;;;5058345;28;20179;-69
2022/06/08 03:29:08;;;;;;;4.67;3.30;;;14.70;94.70;;;;;;5056400;28;20179;-69
2022/06/08 03:31:34;;;;;;;6.10;3.67;;;14.70;94.70;;;;;;5070531;28;20206;-69
2022/06/08 03:34:00;;;;;;;3.27;3.00;;;14.70;94.80;;;;;;5064162;28;20277;-69
2022/06/08 03:36:26;;;;;;;5.53;3.27;;;14.70;94.90;;;;;;5069594;28;20198;-69
2022/06/08 03:38:51;;;;;;;6.57;3.50;;;14.70;95.00;;;;;;5055090;28;20217;-69
2022/06/08 03:41:17;;;;;;;6.27;3.00;;;14.70;95.10;;;;;;5072092;28;20280;-69
2022/06/08 03:43:43;;;;;;;3.30;3.00;;;14.70;95.10;;;;;;5060067;28;20187;-69
2022/06/08 03:46:10;;;;;;;7.17;3.57;;;14.70;95.10;;;;;;5070695;28;20182;-69
2022/06/08 03:48:38;;;;;;;4.53;2.80;;;14.70;95.10;;;;;;5070889;28;20226;-69
2022/06/08 03:51:06;;;;;;;4.27;3.27;;;14.70;95.10;;;;;;5064519;28;20245;-64
2022/06/08 03:53:41;;;;;;;7.00;3.50;;;14.70;95.20;;;;;;5045816;28;20273;-65
2022/06/08 03:56:08;;;;;;;8.13;3.30;;;14.70;95.20;;;;;;5055248;28;20202;-65
2022/06/08 03:58:34;;;;;;;6.40;3.57;;;14.70;95.20;;;;;;5074076;28;20178;-64
2022/06/08 04:01:00;;;;;;;6.43;3.63;;;14.80;95.30;;;;;;5042977;28;20206;-64
2022/06/08 04:03:26;;;;;;;4.13;3.00;;;14.80;95.30;;;;;;5050839;28;20196;-64
2022/06/08 04:05:52;;;;;;;5.53;3.50;;;14.80;95.20;;;;;;5074167;28;20190;-65
2022/06/08 04:08:17;;;;;;;4.77;3.73;;;14.80;95.20;;;;;;5058584;28;20188;-65
2022/06/08 04:10:43;;;;;;;3.77;3.47;;;14.80;95.30;;;;;;5058288;28;20187;-65
2022/06/08 04:13:09;;;;;;;4.17;3.83;;;14.90;95.20;;;;;;5052917;28;20225;-64
2022/06/08 04:15:43;;;;;;;3.57;3.27;;;14.90;95.20;;;;;;5077900;28;20187;-65
2022/06/08 04:18:13;;;;;;;4.10;3.00;;;14.90;95.20;;;;;;5066237;28;20193;-65
2022/06/08 04:20:40;;;;;;;4.90;3.50;;;14.90;95.10;;;;;;5063744;28;20206;-65
2022/06/08 04:23:06;;;;;;;5.77;3.57;;;14.90;95.10;;;;;;5059236;28;20255;-65
2022/06/08 04:25:32;;;;;;;6.20;3.40;;;14.90;95.10;;;;;;5069614;28;20186;-65
2022/06/08 04:27:58;;;;;;;4.47;3.13;;;14.80;94.80;;;;;;5053530;28;20201;-65
2022/06/08 04:30:24;;;;;;;5.93;2.87;;;14.90;94.80;;;;;;5057791;28;20186;-64
2022/06/08 04:32:49;;;;;;;3.40;2.77;;;14.90;93.80;;;;;;5047760;28;20196;-64
2022/06/08 04:35:16;;;;;;;3.03;2.70;;;15.00;94.00;;;;;;5046935;28;20260;-65
2022/06/08 04:37:43;;;;;;;2.90;2.67;;;14.90;93.60;;;;;;5047280;28;20220;-64
2022/06/08 04:40:12;;;;;;;4.60;3.13;;;15.00;93.70;;;;;;5051274;28;20210;-65
2022/06/08 04:42:38;;;;;;;3.53;2.80;;;15.00;94.40;;;;;;5060903;28;20231;-65
2022/06/08 04:45:06;;;;;;;4.03;2.70;;;15.00;94.60;;;;;;5047761;28;20189;-65
2022/06/08 04:47:32;;;;;;;5.03;2.80;;;15.00;94.70;;;;;;5058217;28;20194;-65
2022/06/08 04:49:58;;;;;;;3.80;2.63;;;15.00;94.90;;;;;;5068479;28;20238;-65
2022/06/08 04:52:24;;;;;;;4.27;2.93;;;15.10;94.90;;;;;;5062430;28;20412;-65
2022/06/08 04:54:51;;;;;;;3.33;3.03;;;15.10;94.80;;;;;;5079583;28;20268;-65
2022/06/08 04:57:17;;;;;;;3.73;2.93;;;15.10;94.60;;;;;;5088827;28;20190;-65
2022/06/08 04:59:42;;;;;;;3.67;2.63;;;15.10;95.00;;;;;;5047053;28;20213;-64
2022/06/08 05:02:09;;;;;;;4.33;3.03;;;15.00;93.20;;;;;;5053276;28;20224;-64
2022/06/08 05:04:34;;;;;;;2.50;2.30;;;15.00;91.80;;;;;;5058835;28;20288;-64
2022/06/08 05:07:00;;;;;;;4.23;2.93;;;15.00;92.70;;;;;;5062180;28;20181;-64
2022/06/08 05:09:26;;;;;;;5.23;2.90;;;15.10;93.70;;;;;;5058527;28;20182;-64
2022/06/08 05:11:52;;;;;;;3.87;2.90;;;15.10;94.10;;;;;;5064065;28;20208;-64
2022/06/08 05:14:18;;;;;;;3.57;2.60;;;15.20;94.40;;;;;;5064764;28;20193;-64
2022/06/08 05:16:44;;;;;;;5.30;2.90;;;15.20;94.10;;;;;;5062682;28;20177;-64
2022/06/08 05:19:09;;;;;;;3.67;2.07;;;15.10;92.50;;;;;;5051737;28;20257;-64
2022/06/08 05:21:36;;;;;;;5.30;2.70;;;15.20;93.20;;;;;;5042873;28;20388;-64
2022/06/08 05:24:03;;;;;;;5.87;3.00;;;15.20;94.00;;;;;;5050797;28;20270;-64
2022/06/08 05:26:28;;;;;;;3.03;2.47;;;15.20;94.40;;;;;;5063414;28;20185;-64
2022/06/08 05:28:54;;;;;;;2.70;2.50;;;15.30;94.50;;;;;;5058105;28;20200;-64
2022/06/08 05:31:20;;;;;;;5.40;2.70;;;15.30;94.00;;;;;;5044796;28;20190;-65
2022/06/08 05:33:45;;;;;;;6.53;2.83;;;15.30;93.80;;;;;;5076519;28;20256;-64
2022/06/08 05:36:11;;;;;;;5.00;2.60;;;15.40;94.30;;;;;;5042715;28;20273;-64
2022/06/08 05:38:37;;;;;;;8.20;2.77;;;15.40;93.70;;;;;;5041654;28;20190;-65
2022/06/08 05:41:03;;;;;;;2.93;1.90;;;15.40;93.40;;;;;;5068892;28;20232;-65
2022/06/08 05:43:29;;;;;;;2.10;1.90;;;15.40;92.20;;;;;;5038472;28;20186;-65
2022/06/08 05:45:55;;;;;;;2.33;1.90;;;15.40;91.80;;;;;;5057946;28;20182;-65
2022/06/08 05:48:21;;;;;;;4.20;2.20;;;15.40;92.10;;;;;;5078757;28;20232;-65
2022/06/08 05:50:48;;;;;;;4.70;2.60;;;15.50;91.00;;;;;;5055964;28;20368;-67
2022/06/08 05:53:15;;;;;;;3.13;2.57;;;15.50;92.70;;;;;;5057708;28;20178;-65
2022/06/08 05:55:41;;;;;;;2.13;1.90;;;15.60;93.50;;;;;;5044301;28;20182;-66
2022/06/08 05:58:08;;;;;;;3.47;2.60;;;15.60;92.10;;;;;;5065684;28;20189;-65
2022/06/08 06:00:37;;;;;;;4.67;1.93;;;15.60;91.80;;;;;;5070585;28;20212;-63
2022/06/08 06:03:03;;;;;;;1.53;1.43;;;15.70;91.80;;;;;;5069530;28;20193;-65
2022/06/08 06:05:32;;;;;;;2.40;1.70;;;15.70;90.30;;;;;;5058331;28;20187;-63
2022/06/08 06:07:58;;;;;;;2.20;1.50;;;15.70;90.80;;;;;;5056895;28;20269;-64
2022/06/08 06:10:26;;;;;;;2.33;1.77;;;15.70;90.40;;;;;;5065571;28;20224;-64
2022/06/08 06:12:54;;;;;;;3.80;1.80;;;15.70;90.30;;;;;;5074073;28;20190;-64
2022/06/08 06:15:22;;;;;;;3.33;1.97;;;15.70;90.40;;;;;;5069660;28;20226;-64
2022/06/08 06:17:48;;;;;;;2.83;1.90;;;15.70;91.80;;;;;;5070588;28;20181;-64
2022/06/08 06:20:13;;;;;;;3.77;2.20;;;15.70;92.60;;;;;;5062667;28;20264;-64
2022/06/08 06:22:39;;;;;;;2.60;2.27;;;15.80;93.10;;;;;;5051531;28;20193;-64
2022/06/08 06:25:07;;;;;;;3.07;2.23;;;15.90;93.70;;;;;;5051839;28;20271;-64
2022/06/08 06:27:33;;;;;;;3.03;2.50;;;15.80;92.90;;;;;;5059467;28;20230;-64
2022/06/08 06:29:58;;;;;;;3.60;2.10;;;15.90;93.10;;;;;;5053643;28;20191;-64
2022/06/08 06:32:27;;;;;;;4.03;2.67;;;15.90;93.50;;;;;;5053487;28;20237;-64
2022/06/08 06:34:54;;;;;;;4.03;2.23;;;15.90;93.70;;;;;;5059054;28;20186;-64
2022/06/08 06:37:21;;;;;;;3.00;1.90;;;16.00;93.30;;;;;;5064443;28;20179;-64
2022/06/08 06:39:47;;;;;;;3.67;1.67;;;16.00;92.50;;;;;;5069316;28;20209;-64
2022/06/08 06:42:21;;;;;;;3.40;1.90;;;16.10;92.10;;;;;;5072755;28;20274;-64
2022/06/08 06:44:47;;;;;;;3.37;1.87;;;16.10;92.80;;;;;;5060515;28;20188;-64
2022/06/08 06:47:13;;;;;;;3.50;1.83;;;16.20;93.30;;;;;;5056251;28;20194;-64
2022/06/08 06:49:39;;;;;;;2.70;1.93;;;16.20;93.50;;;;;;5063943;28;20228;-64
2022/06/08 06:52:05;;;;;;;5.33;1.70;;;16.20;92.90;;;;;;5064471;28;20186;-64
2022/06/08 06:54:31;;;;;;;3.67;1.93;;;16.20;92.30;;;;;;5056276;28;20270;-64
2022/06/08 06:56:58;;;;;;;2.30;2.10;;;16.20;92.10;;;;;;5059497;28;20183;-65
2022/06/08 06:59:23;;;;;;;2.70;1.70;;;16.20;90.00;;;;;;5071181;28;20196;-65
2022/06/08 07:01:49;;;;;;;4.30;2.20;;;16.20;91.90;;;;;;5052028;28;20186;-64
2022/06/08 07:04:18;;;;;;;3.93;1.70;;;16.20;93.00;;;;;;5044435;28;20189;-65
2022/06/08 07:06:44;;;;;;;2.83;2.13;;;16.20;92.80;;;;;;5056305;28;20174;-65
2022/06/08 07:09:09;;;;;;;5.60;2.63;;;16.20;92.40;;;;;;5037836;28;20193;-65
2022/06/08 07:11:37;;;;;;;2.73;2.43;;;16.30;93.00;;;;;;5036306;28;20194;-65
2022/06/08 07:14:05;;;;;;;3.30;2.20;;;16.30;93.50;;;;;;5047962;28;20277;-65
2022/06/08 07:16:32;;;;;;;4.27;2.03;;;16.30;93.20;;;;;;5055456;28;20222;-65
2022/06/08 07:18:58;;;;;;;2.40;2.20;;;16.30;93.60;;;;;;5054248;28;20209;-65
2022/06/08 07:21:24;;;;;;;3.70;2.10;;;16.30;93.80;;;;;;5047956;28;20202;-65
2022/06/08 07:23:49;;;;;;;2.73;2.33;;;16.40;94.00;;;;;;5058783;28;20197;-65
2022/06/08 07:26:17;;;;;;;5.00;2.30;;;16.40;94.00;;;;;;5054384;28;20190;-65
2022/06/08 07:28:43;;;;;;;3.83;2.47;;;16.50;94.20;;;;;;5062545;28;20181;-65
2022/06/08 07:31:12;;;;;;;3.93;2.23;;;16.50;94.20;;;;;;5068857;28;20188;-65
2022/06/08 07:33:39;;;;;;;4.23;2.20;;;16.50;94.30;;;;;;5066679;28;20177;-65
2022/06/08 07:36:05;;;;;;;3.27;2.03;;;16.60;94.50;;;;;;5051819;28;20230;-65
2022/06/08 07:38:31;;;;;;;5.00;2.30;;;16.60;94.50;;;;;;5043893;28;20186;-65
2022/06/08 07:40:57;;;;;;;3.10;2.33;;;16.60;94.50;;;;;;5056092;28;20227;-65
2022/06/08 07:43:23;;;;;;;4.53;2.50;;;16.70;94.60;;;;;;5054041;28;20183;-65
2022/06/08 07:45:49;;;;;;;2.33;2.10;;;16.70;94.80;;;;;;5054531;28;20186;-64
2022/06/08 07:50:59;;;;;;;3.57;2.50;;;16.70;94.20;;;;;;5058082;28;20224;-65
2022/06/08 07:53:25;;;;;;;4.53;2.40;;;16.70;94.30;;;;;;5054542;28;20186;-64
2022/06/08 07:55:51;;;;;;;3.20;2.23;;;16.80;94.30;;;;;;5051698;28;20218;-65
2022/06/08 07:58:16;;;;;;;3.30;2.60;;;16.80;94.40;;;;;;5069343;28;20182;-65
2022/06/08 08:00:46;;;;;;;3.40;2.40;;;16.80;94.30;;;;;;5048916;28;20234;-64
2022/06/08 08:03:21;;;;;;;4.17;2.63;;;16.80;94.30;;;;;;5053556;28;20218;-62
2022/06/08 08:05:47;;;;;;;4.30;2.73;;;16.90;94.20;;;;;;5061234;28;20178;-62
2022/06/08 08:08:14;;;;;;;3.03;2.33;;;17.00;94.20;;;;;;5076331;28;20179;-63
2022/06/08 08:10:40;;;;;;;3.83;2.50;;;17.00;94.00;;;;;;5052107;28;20187;-63
2022/06/08 08:13:07;;;;;;;3.60;2.27;;;17.10;94.40;;;;;;5084151;28;20188;-64
2022/06/08 08:15:34;;;;;;;2.43;2.17;;;17.10;94.50;;;;;;5055899;28;20239;-63
2022/06/08 08:18:00;;;;;;;5.80;2.47;;;17.20;94.40;;;;;;5063955;28;20190;-63
2022/06/08 08:20:28;;;;;;;4.30;2.40;;;17.20;93.80;;;;;;5099146;28;20278;-64
2022/06/08 08:22:58;;;;;;;2.70;2.10;;;17.30;94.00;;;;;;5080739;28;20190;-63
2022/06/08 08:25:25;;;;;;;4.80;2.47;;;17.30;94.00;;;;;;5053646;28;20218;-63
2022/06/08 08:27:51;;;;;;;5.57;2.10;;;17.30;93.60;;;;;;5049519;28;20190;-63
2022/06/08 08:30:20;;;;;;;8.50;2.37;;;17.40;92.80;;;;;;5050183;28;20194;-63
2022/06/08 08:32:46;;;;;;;5.93;2.13;;;17.40;92.40;;;;;;5056286;28;20178;-63
2022/06/08 08:35:12;;;;;;;1.80;1.70;;;17.50;93.40;;;;;;5052624;28;20208;-63
2022/06/08 08:37:39;;;;;;;2.20;2.00;;;17.50;90.50;;;;;;5051268;28;20240;-63
2022/06/08 08:40:06;;;;;;;5.37;2.03;;;17.60;91.30;;;;;;5052432;28;20207;-63
2022/06/08 08:42:34;;;;;;;3.50;1.97;;;17.60;90.20;;;;;;5064005;28;20201;-63
2022/06/08 08:45:12;;;;;;;2.13;2.03;;;17.70;91.90;;;;;;5043309;28;20205;-63
2022/06/08 08:47:46;;;;;;;2.00;1.90;;;17.80;92.40;;;;;;5064789;28;20184;-64
2022/06/08 08:50:17;;;;;;;2.20;2.00;;;17.80;90.80;;;;;;5078638;28;20185;-63
2022/06/08 08:53:21;;;;;;;4.27;2.10;;;17.70;91.20;;;;;;5059138;28;20210;-63
2022/06/08 08:56:14;;;;;;;3.50;2.13;;;17.80;91.30;;;;;;5057980;28;20217;-63
2022/06/08 08:58:44;;;;;;;4.23;2.10;;;17.80;89.90;;;;;;5056264;28;20205;-63
2022/06/08 09:01:27;;;;;;;2.60;1.90;;;17.90;90.60;;;;;;5062800;28;20212;-63
2022/06/08 09:04:32;;;;;;;3.43;2.00;;;17.80;86.30;;;;;;5058063;28;20188;-63
2022/06/08 09:07:04;;;;;;;2.03;1.70;;;17.80;89.00;;;;;;5065575;28;20235;-63
2022/06/08 09:09:33;;;;;;;1.93;1.60;;;17.80;86.80;;;;;;5071508;28;20181;-63
2022/06/08 09:11:59;;;;;;;2.63;1.87;;;17.80;89.20;;;;;;5071736;28;20239;-63
2022/06/08 09:14:43;;;;;;;2.50;2.30;;;17.80;89.80;;;;;;5084279;28;20201;-63
2022/06/08 09:17:34;;;;;;;3.57;1.80;;;17.90;90.30;;;;;;5070311;28;20193;-63
2022/06/08 09:20:03;;;;;;;4.13;1.80;;;18.00;90.70;;;;;;5053526;28;20242;-63
2022/06/08 09:22:31;;;;;;;1.73;1.63;;;18.10;90.70;;;;;;5060535;28;20186;-63
2022/06/08 09:25:21;;;;;;;2.53;1.83;;;18.20;90.80;;;;;;5051887;28;20221;-63
2022/06/08 09:27:50;;;;;;;2.83;1.40;;;18.20;91.30;;;;;;5053739;28;20197;-63
2022/06/08 09:30:25;;;;;;;1.93;1.77;;;18.30;89.80;;;;;;5064873;28;20197;-63
2022/06/08 09:32:59;;;;;;;3.53;1.57;;;18.30;89.40;;;;;;5057191;28;20239;-63
2022/06/08 09:36:05;;;;;;;1.90;1.47;;;18.40;85.50;;;;;;5060973;28;20272;-63
2022/06/08 09:38:37;;;;;;;2.20;1.63;;;18.30;85.40;;;;;;5028835;28;20187;-63
2022/06/08 09:41:13;;;;;;;1.93;1.77;;;18.30;85.90;;;;;;5049936;28;20267;-63
2022/06/08 09:44:00;;;;;;;2.10;1.87;;;18.30;86.70;;;;;;5057197;28;20189;-63
2022/06/08 09:53:13;;;;;;;2.97;2.17;;;18.50;88.60;;;;;;5064872;28;20201;-63
2022/06/08 09:55:58;;;;;;;4.13;1.80;;;18.60;90.50;;;;;;5053152;28;20252;-63
2022/06/08 09:58:56;;;;;;;3.87;2.37;;;18.70;89.40;;;;;;5072623;28;20185;-63
2022/06/08 10:01:36;;;;;;;4.73;1.87;;;18.80;89.00;;;;;;5046133;28;20233;-64
2022/06/08 10:04:14;;;;;;;2.53;1.90;;;18.90;88.10;;;;;;5054727;28;20197;-64
2022/06/08 10:07:14;;;;;;;3.80;2.30;;;18.90;88.00;;;;;;5066896;28;20197;-64
2022/06/08 10:09:58;;;;;;;4.37;2.20;;;19.00;87.90;;;;;;5065436;28;20190;-64
2022/06/08 10:12:34;;;;;;;2.77;1.87;;;19.00;86.10;;;;;;5061532;28;20278;-64
2022/06/08 10:15:20;;;;;;;3.77;2.10;;;19.00;86.80;;;;;;5060890;28;20193;-64
2022/06/08 10:17:53;;;;;;;3.77;1.93;;;19.00;84.60;;;;;;5056668;28;20362;-64
2022/06/08 10:20:36;;;;;;;3.80;2.37;;;19.00;85.70;;;;;;5057424;28;20300;-64
2022/06/08 10:23:14;;;;;;;2.83;2.00;;;19.00;87.20;;;;;;5067806;28;20240;-64
2022/06/08 10:25:47;;;;;;;3.27;1.90;;;19.00;85.60;;;;;;5054843;28;20193;-64
2022/06/08 10:28:27;;;;;;;2.07;1.80;;;19.10;88.10;;;;;;5066884;28;20182;-64
2022/06/08 10:31:00;;;;;;;3.73;2.10;;;19.20;87.70;;;;;;5087211;28;20186;-64
2022/06/08 10:33:45;;;;;;;2.70;2.03;;;19.20;87.40;;;;;;5065069;28;20190;-64
2022/06/08 10:36:11;;;;;;;4.83;2.10;;;19.30;89.00;;;;;;5070126;28;20186;-66
2022/06/08 10:38:43;;;;;;;1.70;1.60;;;19.30;88.10;;;;;;5058832;28;20195;-65
2022/06/08 10:44:28;;;;;;;3.03;1.77;;;19.30;85.20;;;;;;5059955;28;20184;-64
2022/06/08 10:46:54;;;;;;;4.70;2.57;;;19.30;84.90;;;;;;5061389;28;20216;-64
2022/06/08 10:49:32;;;;;;;3.20;2.10;;;19.40;86.10;;;;;;5052019;28;20238;-64
2022/06/08 10:52:28;;;;;;;3.23;1.80;;;19.50;86.40;;;;;;5059594;28;20190;-64
2022/06/08 10:55:17;;;;;;;3.97;2.03;;;19.50;86.70;;;;;;5052889;28;20221;-64
2022/06/08 10:57:50;;;;;;;8.10;2.60;;;19.70;87.30;;;;;;5068320;28;20195;-64
2022/06/08 11:00:18;;;;;;;2.67;1.90;;;19.70;85.20;;;;;;5057784;28;20225;-64
2022/06/08 11:03:02;;;;;;;5.30;1.97;;;19.80;86.10;;;;;;5058519;28;20183;-64
2022/06/08 11:05:44;;;;;;;4.30;2.23;;;19.80;87.40;;;;;;5063891;28;20178;-64
2022/06/08 11:08:10;;;;;;;4.27;2.17;;;19.90;86.30;;;;;;5103235;28;20186;-64
2022/06/08 11:10:44;;;;;;;3.93;2.00;;;20.10;87.00;;;;;;5058818;28;20305;-64
2022/06/08 11:15:52;;;;;;;3.10;2.80;;;20.50;84.90;;;;;;5073252;28;20278;-63
2022/06/08 11:18:38;;;;;;;5.37;1.83;;;20.80;80.20;;;;;;5059513;28;20182;-63
2022/06/08 11:21:34;;;;;;;4.90;2.17;;;20.80;80.60;;;;;;5058897;28;20226;-63
2022/06/08 11:24:23;;;;;;;4.37;2.37;;;20.80;75.90;;;;;;5066872;28;20239;-63
2022/06/08 11:27:09;;;;;;;2.13;1.90;;;20.80;78.90;;;;;;5051394;28;20182;-63
2022/06/08 11:29:46;;;;;;;4.23;2.10;;;20.90;81.40;;;;;;5070719;28;20235;-63
2022/06/08 11:32:21;;;;;;;3.23;1.93;;;21.00;73.30;;;;;;5060380;28;20323;-63
2022/06/08 11:35:21;;;;;;;3.63;1.60;;;21.20;75.00;;;;;;5066410;28;20189;-61
2022/06/08 11:38:08;;;;;;;4.43;1.93;;;21.20;78.90;;;;;;5066997;28;20188;-61
2022/06/08 11:40:36;;;;;;;4.53;1.67;;;21.30;72.70;;;;;;5060737;28;20206;-64
2022/06/08 11:43:13;;;;;;;2.87;1.60;;;21.30;76.60;;;;;;5060100;28;20250;-62
2022/06/08 11:45:47;;;;;;;5.70;1.60;;;21.30;75.70;;;;;;5067663;28;20181;-62
2022/06/08 11:48:20;;;;;;;3.47;1.50;;;21.30;72.90;;;;;;5070309;28;20217;-62
2022/06/08 11:50:55;;;;;;;2.90;1.80;;;21.30;73.40;;;;;;5060829;28;20186;-62
2022/06/08 11:53:35;;;;;;;2.97;1.70;;;21.30;74.80;;;;;;5089692;28;20252;-62
2022/06/08 11:56:06;;;;;;;3.23;1.40;;;21.40;72.90;;;;;;5067756;28;20181;-62
2022/06/08 11:58:34;;;;;;;4.03;1.63;;;21.40;73.80;;;;;;5051312;28;20268;-62
2022/06/08 12:01:09;;;;;;;4.50;2.10;;;21.50;72.80;;;;;;5049930;28;20206;-62
2022/06/08 12:03:44;;;;;;;1.67;1.30;;;21.60;75.50;;;;;;5052261;28;20174;-62
2022/06/08 12:06:24;;;;;;;3.00;1.67;;;21.80;71.30;;;;;;5059120;28;20177;-62
2022/06/08 12:09:01;;;;;;;1.60;1.50;;;21.70;71.80;;;;;;5070147;28;20188;-62
2022/06/08 12:11:30;;;;;;;4.87;2.33;;;21.60;72.10;;;;;;5068302;28;20186;-62
2022/06/08 12:14:00;;;;;;;2.80;1.80;;;21.40;77.00;;;;;;5058561;28;20186;-62
2022/06/08 12:16:35;;;;;;;3.90;1.87;;;21.40;77.30;;;;;;5057650;28;20192;-62
2022/06/08 12:19:14;;;;;;;2.60;1.50;;;21.30;76.80;;;;;;5060778;28;20186;-62
2022/06/08 12:21:42;;;;;;;2.93;1.80;;;21.20;78.50;;;;;;5057844;28;20212;-62
2022/06/08 12:24:11;;;;;;;3.07;1.73;;;21.10;77.70;;;;;;5055067;28;20194;-62
2022/06/08 12:26:51;;;;;;;3.30;1.60;;;21.00;77.50;;;;;;5056733;28;20277;-62
2022/06/08 12:29:16;;;;;;;2.57;1.57;;;20.80;77.70;;;;;;5055838;28;20192;-62
2022/06/08 12:31:43;;;;;;;2.07;1.87;;;20.80;80.80;;;;;;5052126;28;20183;-62
2022/06/08 12:34:44;;;;;;;4.57;1.77;;;20.80;80.00;;;;;;5070858;28;20266;-62
2022/06/08 12:37:25;;;;;;;8.40;2.30;;;20.70;79.40;;;;;;4965006;28;20187;-62
2022/06/08 12:39:52;;;;;;;5.53;2.43;;;20.70;83.00;;;;;;5055946;28;20291;-62
2022/06/08 12:42:33;;;;;;;4.20;2.20;;;20.70;81.60;;;;;;5070723;28;20177;-62
2022/06/08 12:45:00;;;;;;;7.53;1.83;;;20.60;83.10;;;;;;5056300;28;20178;-62
2022/06/08 12:47:38;;;;;;;7.77;1.90;;;20.50;82.00;;;;;;5061252;28;20251;-62
2022/06/08 12:50:15;;;;;;;4.70;1.97;;;20.50;83.80;;;;;;5054619;28;20288;-63
2022/06/08 12:52:43;;;;;;;7.30;2.07;;;20.30;83.60;;;;;;5070259;28;20185;-62
2022/06/08 12:55:19;;;;;;;3.97;2.07;;;20.40;83.30;;;;;;5051098;28;20212;-60
2022/06/08 12:57:46;;;;;;;7.33;2.00;;;20.30;84.00;;;;;;5058939;28;20246;-61
2022/06/08 13:00:18;;;;;;;3.57;2.07;;;20.30;82.90;;;;;;5078832;28;20221;-63
2022/06/08 13:02:44;;;;;;;3.77;1.80;;;20.10;83.00;;;;;;5058419;28;20200;-62
2022/06/08 13:05:25;;;;;;;7.97;2.20;;;20.10;83.80;;;;;;5068948;28;20173;-63
2022/06/08 13:07:54;;;;;;;3.77;1.73;;;20.10;83.20;;;;;;5070039;28;20181;-63
2022/06/08 13:10:22;;;;;;;4.00;2.17;;;20.10;83.60;;;;;;5053733;28;20190;-63
2022/06/08 13:12:53;;;;;;;3.63;2.20;;;20.00;83.50;;;;;;5055600;28;20197;-62
2022/06/08 13:15:20;;;;;;;5.47;2.10;;;20.10;83.80;;;;;;5056426;28;20276;-63
2022/06/08 13:17:47;;;;;;;7.00;2.50;;;20.20;83.70;;;;;;5062075;28;20235;-66
2022/06/08 13:20:35;;;;;;;2.07;1.80;;;20.20;83.60;;;;;;5062971;28;20208;-64
2022/06/08 13:23:02;;;;;;;3.47;2.23;;;20.10;85.50;;;;;;5060831;28;20174;-65
2022/06/08 13:25:29;;;;;;;4.20;2.30;;;20.10;84.30;;;;;;5067458;28;20226;-66
2022/06/08 13:27:56;;;;;;;5.70;2.17;;;20.20;84.40;;;;;;5054811;28;20277;-66
2022/06/08 13:30:28;;;;;;;4.53;2.03;;;20.20;82.90;;;;;;5066487;28;20185;-70
2022/06/08 13:32:55;;;;;;;6.10;2.40;;;20.20;83.40;;;;;;5055845;28;20186;-69